sensor_id;sensor_type;location;lat;lon;timestamp;P1;durP1;ratioP1;P2;durP2;ratioP2
52854;SDS011;38719;51.418;7.286;2022-09-03T00:02:13;3.88;;;2.10;;
52854;SDS011;38719;51.418;7.286;2022-09-03T00:04:46;3.78;;;2.40;;
52854;SDS011;38719;51.418;7.286;2022-09-03T00:07:25;2.72;;;2.17;;
52854;SDS011;38719;51.418;7.286;2022-09-03T00:09:59;2.13;;;1.95;;
52854;SDS011;38719;51.418;7.286;2022-09-03T00:12:31;2.63;;;2.08;;
52854;SDS011;38719;51.418;7.286;2022-09-03T00:15:04;2.38;;;2.17;;
52854;SDS011;38719;51.418;7.286;2022-09-03T00:17:35;2.53;;;1.92;;
52854;SDS011;38719;51.418;7.286;2022-09-03T00:20:06;2.78;;;2.00;;
52854;SDS011;38719;51.418;7.286;2022-09-03T00:22:39;2.22;;;1.73;;
52854;SDS011;38719;51.418;7.286;2022-09-03T00:25:11;2.42;;;2.05;;
52854;SDS011;38719;51.418;7.286;2022-09-03T00:27:44;3.65;;;2.15;;
52854;SDS011;38719;51.418;7.286;2022-09-03T00:30:17;3.50;;;2.10;;
52854;SDS011;38719;51.418;7.286;2022-09-03T00:32:48;4.38;;;2.13;;
52854;SDS011;38719;51.418;7.286;2022-09-03T00:35:22;2.95;;;2.13;;
52854;SDS011;38719;51.418;7.286;2022-09-03T00:37:53;5.25;;;2.05;;
52854;SDS011;38719;51.418;7.286;2022-09-03T00:40:30;4.22;;;2.22;;
52854;SDS011;38719;51.418;7.286;2022-09-03T00:43:07;3.42;;;2.00;;
52854;SDS011;38719;51.418;7.286;2022-09-03T00:48:16;4.75;;;1.92;;
52854;SDS011;38719;51.418;7.286;2022-09-03T00:51:03;2.85;;;2.00;;
52854;SDS011;38719;51.418;7.286;2022-09-03T00:53:43;2.20;;;2.00;;
52854;SDS011;38719;51.418;7.286;2022-09-03T00:56:24;4.05;;;2.25;;
52854;SDS011;38719;51.418;7.286;2022-09-03T00:59:02;3.85;;;2.08;;
52854;SDS011;38719;51.418;7.286;2022-09-03T01:01:44;2.30;;;2.10;;
52854;SDS011;38719;51.418;7.286;2022-09-03T01:04:24;2.42;;;2.10;;
52854;SDS011;38719;51.418;7.286;2022-09-03T01:07:01;3.25;;;2.10;;
52854;SDS011;38719;51.418;7.286;2022-09-03T01:09:43;1.83;;;1.73;;
52854;SDS011;38719;51.418;7.286;2022-09-03T01:12:23;2.45;;;2.20;;
52854;SDS011;38719;51.418;7.286;2022-09-03T01:15:05;4.97;;;1.90;;
52854;SDS011;38719;51.418;7.286;2022-09-03T01:17:42;4.15;;;2.10;;
52854;SDS011;38719;51.418;7.286;2022-09-03T01:20:22;3.05;;;2.03;;
52854;SDS011;38719;51.418;7.286;2022-09-03T01:23:08;2.42;;;1.88;;
52854;SDS011;38719;51.418;7.286;2022-09-03T01:25:49;2.88;;;2.13;;
52854;SDS011;38719;51.418;7.286;2022-09-03T01:28:28;2.58;;;2.20;;
52854;SDS011;38719;51.418;7.286;2022-09-03T01:31:10;3.70;;;2.10;;
52854;SDS011;38719;51.418;7.286;2022-09-03T01:33:48;2.92;;;1.90;;
52854;SDS011;38719;51.418;7.286;2022-09-03T01:38:54;4.60;;;2.13;;
52854;SDS011;38719;51.418;7.286;2022-09-03T01:41:26;2.63;;;2.00;;
52854;SDS011;38719;51.418;7.286;2022-09-03T01:44:31;3.67;;;1.98;;
52854;SDS011;38719;51.418;7.286;2022-09-03T01:47:13;3.15;;;2.20;;
52854;SDS011;38719;51.418;7.286;2022-09-03T01:49:50;5.60;;;2.03;;
52854;SDS011;38719;51.418;7.286;2022-09-03T01:52:28;3.42;;;2.00;;
52854;SDS011;38719;51.418;7.286;2022-09-03T01:55:12;1.85;;;1.75;;
52854;SDS011;38719;51.418;7.286;2022-09-03T01:57:55;1.98;;;1.80;;
52854;SDS011;38719;51.418;7.286;2022-09-03T02:00:28;3.03;;;2.17;;
52854;SDS011;38719;51.418;7.286;2022-09-03T02:02:59;2.30;;;2.10;;
52854;SDS011;38719;51.418;7.286;2022-09-03T02:05:30;2.42;;;2.10;;
52854;SDS011;38719;51.418;7.286;2022-09-03T02:08:01;4.22;;;1.92;;
52854;SDS011;38719;51.418;7.286;2022-09-03T02:10:33;4.50;;;2.35;;
52854;SDS011;38719;51.418;7.286;2022-09-03T02:13:08;2.45;;;2.00;;
52854;SDS011;38719;51.418;7.286;2022-09-03T02:15:40;3.53;;;2.00;;
52854;SDS011;38719;51.418;7.286;2022-09-03T02:18:13;2.80;;;1.85;;
52854;SDS011;38719;51.418;7.286;2022-09-03T02:20:44;5.18;;;2.00;;
52854;SDS011;38719;51.418;7.286;2022-09-03T02:23:13;3.63;;;2.10;;
52854;SDS011;38719;51.418;7.286;2022-09-03T02:25:42;2.03;;;1.80;;
52854;SDS011;38719;51.418;7.286;2022-09-03T02:28:13;2.90;;;2.00;;
52854;SDS011;38719;51.418;7.286;2022-09-03T02:30:54;2.20;;;2.00;;
52854;SDS011;38719;51.418;7.286;2022-09-03T02:33:22;3.75;;;2.03;;
52854;SDS011;38719;51.418;7.286;2022-09-03T02:35:50;2.88;;;2.10;;
52854;SDS011;38719;51.418;7.286;2022-09-03T02:38:19;3.28;;;1.83;;
52854;SDS011;38719;51.418;7.286;2022-09-03T02:40:51;4.35;;;2.05;;
52854;SDS011;38719;51.418;7.286;2022-09-03T02:43:20;2.40;;;1.80;;
52854;SDS011;38719;51.418;7.286;2022-09-03T02:45:55;2.50;;;2.15;;
52854;SDS011;38719;51.418;7.286;2022-09-03T02:48:28;2.30;;;2.10;;
52854;SDS011;38719;51.418;7.286;2022-09-03T02:50:56;2.72;;;2.17;;
52854;SDS011;38719;51.418;7.286;2022-09-03T02:53:24;2.45;;;1.92;;
52854;SDS011;38719;51.418;7.286;2022-09-03T02:55:56;2.40;;;2.10;;
52854;SDS011;38719;51.418;7.286;2022-09-03T02:58:25;2.58;;;1.90;;
52854;SDS011;38719;51.418;7.286;2022-09-03T03:00:54;3.63;;;2.08;;
52854;SDS011;38719;51.418;7.286;2022-09-03T03:03:22;2.78;;;1.98;;
52854;SDS011;38719;51.418;7.286;2022-09-03T03:05:50;4.57;;;1.98;;
52854;SDS011;38719;51.418;7.286;2022-09-03T03:08:21;2.25;;;2.05;;
52854;SDS011;38719;51.418;7.286;2022-09-03T03:10:51;2.58;;;2.15;;
52854;SDS011;38719;51.418;7.286;2022-09-03T03:13:20;2.28;;;1.92;;
52854;SDS011;38719;51.418;7.286;2022-09-03T03:15:47;4.40;;;2.30;;
52854;SDS011;38719;51.418;7.286;2022-09-03T03:18:16;1.95;;;1.85;;
52854;SDS011;38719;51.418;7.286;2022-09-03T03:20:45;3.28;;;2.42;;
52854;SDS011;38719;51.418;7.286;2022-09-03T03:23:13;1.95;;;1.80;;
52854;SDS011;38719;51.418;7.286;2022-09-03T03:25:41;2.95;;;2.20;;
52854;SDS011;38719;51.418;7.286;2022-09-03T03:28:08;2.35;;;2.10;;
52854;SDS011;38719;51.418;7.286;2022-09-03T03:30:36;2.33;;;2.05;;
52854;SDS011;38719;51.418;7.286;2022-09-03T03:33:05;3.70;;;2.13;;
52854;SDS011;38719;51.418;7.286;2022-09-03T03:35:34;6.53;;;3.28;;
52854;SDS011;38719;51.418;7.286;2022-09-03T03:38:02;2.83;;;1.95;;
52854;SDS011;38719;51.418;7.286;2022-09-03T03:40:30;2.28;;;2.08;;
52854;SDS011;38719;51.418;7.286;2022-09-03T03:42:58;2.83;;;2.10;;
52854;SDS011;38719;51.418;7.286;2022-09-03T03:45:25;2.60;;;1.98;;
52854;SDS011;38719;51.418;7.286;2022-09-03T03:47:55;2.10;;;1.90;;
52854;SDS011;38719;51.418;7.286;2022-09-03T03:50:23;4.40;;;2.13;;
52854;SDS011;38719;51.418;7.286;2022-09-03T03:52:52;3.53;;;2.08;;
52854;SDS011;38719;51.418;7.286;2022-09-03T03:55:20;5.45;;;2.00;;
52854;SDS011;38719;51.418;7.286;2022-09-03T03:57:52;3.00;;;2.17;;
52854;SDS011;38719;51.418;7.286;2022-09-03T04:00:19;4.13;;;2.00;;
52854;SDS011;38719;51.418;7.286;2022-09-03T04:02:49;3.25;;;2.20;;
52854;SDS011;38719;51.418;7.286;2022-09-03T04:05:18;2.30;;;2.10;;
52854;SDS011;38719;51.418;7.286;2022-09-03T04:07:49;2.80;;;2.30;;
52854;SDS011;38719;51.418;7.286;2022-09-03T04:10:18;2.35;;;2.00;;
52854;SDS011;38719;51.418;7.286;2022-09-03T04:12:45;3.90;;;2.13;;
52854;SDS011;38719;51.418;7.286;2022-09-03T04:15:13;3.53;;;2.03;;
52854;SDS011;38719;51.418;7.286;2022-09-03T04:17:40;2.15;;;1.95;;
52854;SDS011;38719;51.418;7.286;2022-09-03T04:20:09;6.47;;;2.47;;
52854;SDS011;38719;51.418;7.286;2022-09-03T04:22:36;3.13;;;2.20;;
52854;SDS011;38719;51.418;7.286;2022-09-03T04:25:04;1.90;;;1.80;;
52854;SDS011;38719;51.418;7.286;2022-09-03T04:27:33;3.30;;;2.00;;
52854;SDS011;38719;51.418;7.286;2022-09-03T04:30:01;3.53;;;2.00;;
52854;SDS011;38719;51.418;7.286;2022-09-03T04:32:29;3.13;;;2.00;;
52854;SDS011;38719;51.418;7.286;2022-09-03T04:35:17;5.25;;;2.30;;
52854;SDS011;38719;51.418;7.286;2022-09-03T04:37:46;4.18;;;2.40;;
52854;SDS011;38719;51.418;7.286;2022-09-03T04:40:14;3.38;;;2.13;;
52854;SDS011;38719;51.418;7.286;2022-09-03T04:42:43;3.15;;;2.15;;
52854;SDS011;38719;51.418;7.286;2022-09-03T04:45:11;3.22;;;2.28;;
52854;SDS011;38719;51.418;7.286;2022-09-03T04:47:43;2.30;;;2.10;;
52854;SDS011;38719;51.418;7.286;2022-09-03T04:50:12;2.38;;;2.17;;
52854;SDS011;38719;51.418;7.286;2022-09-03T04:52:40;2.17;;;1.98;;
52854;SDS011;38719;51.418;7.286;2022-09-03T04:55:07;3.90;;;2.05;;
52854;SDS011;38719;51.418;7.286;2022-09-03T04:57:37;2.30;;;2.10;;
52854;SDS011;38719;51.418;7.286;2022-09-03T05:00:06;2.67;;;1.83;;
52854;SDS011;38719;51.418;7.286;2022-09-03T05:02:36;2.55;;;2.20;;
52854;SDS011;38719;51.418;7.286;2022-09-03T05:05:04;2.33;;;2.10;;
52854;SDS011;38719;51.418;7.286;2022-09-03T05:07:32;2.80;;;2.20;;
52854;SDS011;38719;51.418;7.286;2022-09-03T05:10:04;4.50;;;2.17;;
52854;SDS011;38719;51.418;7.286;2022-09-03T05:12:33;1.90;;;1.80;;
52854;SDS011;38719;51.418;7.286;2022-09-03T05:15:01;2.00;;;1.90;;
52854;SDS011;38719;51.418;7.286;2022-09-03T05:17:31;2.80;;;1.83;;
52854;SDS011;38719;51.418;7.286;2022-09-03T05:20:03;2.63;;;2.10;;
52854;SDS011;38719;51.418;7.286;2022-09-03T05:22:32;2.15;;;1.90;;
52854;SDS011;38719;51.418;7.286;2022-09-03T05:25:00;2.38;;;2.17;;
52854;SDS011;38719;51.418;7.286;2022-09-03T05:27:27;3.05;;;2.30;;
52854;SDS011;38719;51.418;7.286;2022-09-03T05:29:57;2.30;;;2.10;;
52854;SDS011;38719;51.418;7.286;2022-09-03T05:32:24;2.20;;;2.00;;
52854;SDS011;38719;51.418;7.286;2022-09-03T05:34:55;2.97;;;2.35;;
52854;SDS011;38719;51.418;7.286;2022-09-03T05:37:22;4.63;;;2.40;;
52854;SDS011;38719;51.418;7.286;2022-09-03T05:39:50;3.70;;;2.28;;
52854;SDS011;38719;51.418;7.286;2022-09-03T05:42:18;3.83;;;2.00;;
52854;SDS011;38719;51.418;7.286;2022-09-03T05:44:47;2.72;;;2.20;;
52854;SDS011;38719;51.418;7.286;2022-09-03T05:47:15;2.83;;;2.17;;
52854;SDS011;38719;51.418;7.286;2022-09-03T05:49:42;2.30;;;2.10;;
52854;SDS011;38719;51.418;7.286;2022-09-03T05:52:11;2.47;;;1.98;;
52854;SDS011;38719;51.418;7.286;2022-09-03T05:54:39;4.88;;;2.00;;
52854;SDS011;38719;51.418;7.286;2022-09-03T05:57:06;3.45;;;2.00;;
52854;SDS011;38719;51.418;7.286;2022-09-03T05:59:34;2.85;;;2.03;;
52854;SDS011;38719;51.418;7.286;2022-09-03T06:02:02;2.30;;;2.10;;
52854;SDS011;38719;51.418;7.286;2022-09-03T06:04:30;2.10;;;2.00;;
52854;SDS011;38719;51.418;7.286;2022-09-03T06:06:58;3.22;;;1.90;;
52854;SDS011;38719;51.418;7.286;2022-09-03T06:09:27;4.35;;;2.05;;
52854;SDS011;38719;51.418;7.286;2022-09-03T06:11:54;2.90;;;2.30;;
52854;SDS011;38719;51.418;7.286;2022-09-03T06:14:24;2.38;;;2.10;;
52854;SDS011;38719;51.418;7.286;2022-09-03T06:16:52;3.47;;;2.00;;
52854;SDS011;38719;51.418;7.286;2022-09-03T06:19:21;2.40;;;2.00;;
52854;SDS011;38719;51.418;7.286;2022-09-03T06:21:49;2.35;;;2.10;;
52854;SDS011;38719;51.418;7.286;2022-09-03T06:24:17;2.22;;;1.92;;
52854;SDS011;38719;51.418;7.286;2022-09-03T06:29:21;2.05;;;1.95;;
52854;SDS011;38719;51.418;7.286;2022-09-03T06:31:48;3.13;;;2.20;;
52854;SDS011;38719;51.418;7.286;2022-09-03T06:34:16;2.50;;;2.05;;
52854;SDS011;38719;51.418;7.286;2022-09-03T06:36:44;2.03;;;1.92;;
52854;SDS011;38719;51.418;7.286;2022-09-03T06:39:12;3.05;;;2.10;;
52854;SDS011;38719;51.418;7.286;2022-09-03T06:41:39;2.83;;;2.20;;
52854;SDS011;38719;51.418;7.286;2022-09-03T06:44:08;2.50;;;1.90;;
52854;SDS011;38719;51.418;7.286;2022-09-03T06:46:38;4.20;;;2.20;;
52854;SDS011;38719;51.418;7.286;2022-09-03T06:49:08;2.85;;;2.20;;
52854;SDS011;38719;51.418;7.286;2022-09-03T06:51:37;8.65;;;2.50;;
52854;SDS011;38719;51.418;7.286;2022-09-03T06:54:05;2.85;;;2.03;;
52854;SDS011;38719;51.418;7.286;2022-09-03T06:56:35;3.25;;;2.38;;
52854;SDS011;38719;51.418;7.286;2022-09-03T06:59:06;2.28;;;2.08;;
52854;SDS011;38719;51.418;7.286;2022-09-03T07:01:36;4.55;;;2.25;;
52854;SDS011;38719;51.418;7.286;2022-09-03T07:04:09;5.85;;;2.13;;
52854;SDS011;38719;51.418;7.286;2022-09-03T07:06:38;2.60;;;2.00;;
52854;SDS011;38719;51.418;7.286;2022-09-03T07:09:08;4.45;;;2.40;;
52854;SDS011;38719;51.418;7.286;2022-09-03T07:11:37;3.17;;;2.50;;
52854;SDS011;38719;51.418;7.286;2022-09-03T07:14:13;3.95;;;2.30;;
52854;SDS011;38719;51.418;7.286;2022-09-03T07:16:41;5.35;;;2.58;;
52854;SDS011;38719;51.418;7.286;2022-09-03T07:19:09;2.50;;;2.20;;
52854;SDS011;38719;51.418;7.286;2022-09-03T07:21:38;4.97;;;2.33;;
52854;SDS011;38719;51.418;7.286;2022-09-03T07:24:14;4.88;;;2.40;;
52854;SDS011;38719;51.418;7.286;2022-09-03T07:26:43;4.18;;;2.50;;
52854;SDS011;38719;51.418;7.286;2022-09-03T07:29:11;3.65;;;2.70;;
52854;SDS011;38719;51.418;7.286;2022-09-03T07:31:42;4.70;;;2.63;;
52854;SDS011;38719;51.418;7.286;2022-09-03T07:34:10;7.53;;;2.40;;
52854;SDS011;38719;51.418;7.286;2022-09-03T07:36:43;5.85;;;2.10;;
52854;SDS011;38719;51.418;7.286;2022-09-03T07:39:14;3.85;;;2.00;;
52854;SDS011;38719;51.418;7.286;2022-09-03T07:41:43;4.45;;;2.22;;
52854;SDS011;38719;51.418;7.286;2022-09-03T07:44:11;2.30;;;2.10;;
52854;SDS011;38719;51.418;7.286;2022-09-03T07:46:41;3.22;;;1.80;;
52854;SDS011;38719;51.418;7.286;2022-09-03T07:49:11;4.88;;;2.25;;
52854;SDS011;38719;51.418;7.286;2022-09-03T07:51:39;2.55;;;2.00;;
52854;SDS011;38719;51.418;7.286;2022-09-03T07:54:07;2.20;;;2.00;;
52854;SDS011;38719;51.418;7.286;2022-09-03T07:56:37;4.80;;;2.00;;
52854;SDS011;38719;51.418;7.286;2022-09-03T07:59:05;1.95;;;1.80;;
52854;SDS011;38719;51.418;7.286;2022-09-03T08:01:33;2.85;;;2.25;;
52854;SDS011;38719;51.418;7.286;2022-09-03T08:04:05;2.25;;;1.85;;
52854;SDS011;38719;51.418;7.286;2022-09-03T08:06:35;5.50;;;2.13;;
52854;SDS011;38719;51.418;7.286;2022-09-03T08:09:05;2.45;;;1.95;;
52854;SDS011;38719;51.418;7.286;2022-09-03T08:11:35;4.10;;;2.10;;
52854;SDS011;38719;51.418;7.286;2022-09-03T08:14:05;4.47;;;1.80;;
52854;SDS011;38719;51.418;7.286;2022-09-03T08:16:34;4.18;;;1.90;;
52854;SDS011;38719;51.418;7.286;2022-09-03T08:19:04;4.25;;;1.95;;
52854;SDS011;38719;51.418;7.286;2022-09-03T08:21:33;2.30;;;2.10;;
52854;SDS011;38719;51.418;7.286;2022-09-03T08:24:01;2.53;;;2.20;;
52854;SDS011;38719;51.418;7.286;2022-09-03T08:26:29;1.92;;;1.73;;
52854;SDS011;38719;51.418;7.286;2022-09-03T08:28:58;2.17;;;1.85;;
52854;SDS011;38719;51.418;7.286;2022-09-03T08:31:27;3.75;;;1.98;;
52854;SDS011;38719;51.418;7.286;2022-09-03T08:33:56;2.60;;;1.88;;
52854;SDS011;38719;51.418;7.286;2022-09-03T08:36:28;2.58;;;2.03;;
52854;SDS011;38719;51.418;7.286;2022-09-03T08:38:57;8.02;;;2.15;;
52854;SDS011;38719;51.418;7.286;2022-09-03T08:41:32;5.00;;;1.80;;
52854;SDS011;38719;51.418;7.286;2022-09-03T08:44:13;6.95;;;1.80;;
52854;SDS011;38719;51.418;7.286;2022-09-03T08:46:49;15.35;;;2.63;;
52854;SDS011;38719;51.418;7.286;2022-09-03T08:49:21;3.08;;;2.03;;
52854;SDS011;38719;51.418;7.286;2022-09-03T08:51:54;3.50;;;2.05;;
52854;SDS011;38719;51.418;7.286;2022-09-03T08:54:29;3.38;;;2.22;;
52854;SDS011;38719;51.418;7.286;2022-09-03T08:56:59;2.70;;;2.00;;
52854;SDS011;38719;51.418;7.286;2022-09-03T08:59:28;3.22;;;1.80;;
52854;SDS011;38719;51.418;7.286;2022-09-03T09:02:00;5.25;;;2.15;;
52854;SDS011;38719;51.418;7.286;2022-09-03T09:04:46;3.40;;;2.17;;
52854;SDS011;38719;51.418;7.286;2022-09-03T09:07:26;2.15;;;1.95;;
52854;SDS011;38719;51.418;7.286;2022-09-03T09:09:59;2.20;;;2.00;;
52854;SDS011;38719;51.418;7.286;2022-09-03T09:12:37;5.90;;;2.00;;
52854;SDS011;38719;51.418;7.286;2022-09-03T09:15:13;3.65;;;2.30;;
52854;SDS011;38719;51.418;7.286;2022-09-03T09:17:56;3.80;;;1.83;;
52854;SDS011;38719;51.418;7.286;2022-09-03T09:20:31;2.70;;;2.00;;
52854;SDS011;38719;51.418;7.286;2022-09-03T09:23:09;4.13;;;2.00;;
52854;SDS011;38719;51.418;7.286;2022-09-03T09:25:43;2.25;;;1.98;;
52854;SDS011;38719;51.418;7.286;2022-09-03T09:28:15;3.70;;;2.08;;
52854;SDS011;38719;51.418;7.286;2022-09-03T09:30:46;4.13;;;2.10;;
52854;SDS011;38719;51.418;7.286;2022-09-03T09:33:15;5.82;;;2.10;;
52854;SDS011;38719;51.418;7.286;2022-09-03T09:35:45;3.38;;;1.80;;
52854;SDS011;38719;51.418;7.286;2022-09-03T09:38:26;7.05;;;2.42;;
52854;SDS011;38719;51.418;7.286;2022-09-03T09:40:55;2.92;;;1.88;;
52854;SDS011;38719;51.418;7.286;2022-09-03T09:43:24;2.08;;;1.90;;
52854;SDS011;38719;51.418;7.286;2022-09-03T09:45:52;2.75;;;2.10;;
52854;SDS011;38719;51.418;7.286;2022-09-03T09:48:21;2.55;;;1.95;;
52854;SDS011;38719;51.418;7.286;2022-09-03T09:51:03;7.25;;;2.20;;
52854;SDS011;38719;51.418;7.286;2022-09-03T09:53:33;2.42;;;2.03;;
52854;SDS011;38719;51.418;7.286;2022-09-03T09:56:01;6.13;;;2.10;;
52854;SDS011;38719;51.418;7.286;2022-09-03T09:58:29;2.53;;;1.98;;
52854;SDS011;38719;51.418;7.286;2022-09-03T10:01:02;2.33;;;1.90;;
52854;SDS011;38719;51.418;7.286;2022-09-03T10:03:39;4.50;;;2.38;;
52854;SDS011;38719;51.418;7.286;2022-09-03T10:06:14;5.68;;;2.25;;
52854;SDS011;38719;51.418;7.286;2022-09-03T10:09:08;2.28;;;2.08;;
52854;SDS011;38719;51.418;7.286;2022-09-03T10:11:39;3.35;;;2.17;;
52854;SDS011;38719;51.418;7.286;2022-09-03T10:14:12;2.88;;;2.10;;
52854;SDS011;38719;51.418;7.286;2022-09-03T10:16:46;8.30;;;2.50;;
52854;SDS011;38719;51.418;7.286;2022-09-03T10:19:17;4.57;;;2.20;;
52854;SDS011;38719;51.418;7.286;2022-09-03T10:21:49;3.65;;;2.38;;
52854;SDS011;38719;51.418;7.286;2022-09-03T10:24:33;3.42;;;2.45;;
52854;SDS011;38719;51.418;7.286;2022-09-03T10:27:07;3.33;;;2.13;;
52854;SDS011;38719;51.418;7.286;2022-09-03T10:29:38;3.45;;;2.40;;
52854;SDS011;38719;51.418;7.286;2022-09-03T10:32:10;5.82;;;2.28;;
52854;SDS011;38719;51.418;7.286;2022-09-03T10:34:51;6.35;;;2.10;;
52854;SDS011;38719;51.418;7.286;2022-09-03T10:37:32;9.63;;;2.60;;
52854;SDS011;38719;51.418;7.286;2022-09-03T10:40:09;2.53;;;2.20;;
52854;SDS011;38719;51.418;7.286;2022-09-03T10:42:43;3.97;;;2.45;;
52854;SDS011;38719;51.418;7.286;2022-09-03T10:45:17;6.57;;;2.30;;
52854;SDS011;38719;51.418;7.286;2022-09-03T10:48:12;2.30;;;2.10;;
52854;SDS011;38719;51.418;7.286;2022-09-03T10:50:52;2.97;;;2.38;;
52854;SDS011;38719;51.418;7.286;2022-09-03T10:53:27;4.35;;;2.30;;
52854;SDS011;38719;51.418;7.286;2022-09-03T10:56:06;2.65;;;2.20;;
52854;SDS011;38719;51.418;7.286;2022-09-03T10:58:43;3.15;;;2.40;;
52854;SDS011;38719;51.418;7.286;2022-09-03T11:01:21;5.50;;;2.10;;
52854;SDS011;38719;51.418;7.286;2022-09-03T11:03:55;12.30;;;2.50;;
52854;SDS011;38719;51.418;7.286;2022-09-03T11:06:41;6.35;;;2.42;;
52854;SDS011;38719;51.418;7.286;2022-09-03T11:11:48;2.65;;;2.10;;
52854;SDS011;38719;51.418;7.286;2022-09-03T11:14:22;6.17;;;2.47;;
52854;SDS011;38719;51.418;7.286;2022-09-03T11:16:57;6.03;;;2.13;;
52854;SDS011;38719;51.418;7.286;2022-09-03T11:19:32;2.47;;;1.95;;
52854;SDS011;38719;51.418;7.286;2022-09-03T11:22:03;3.75;;;2.30;;
52854;SDS011;38719;51.418;7.286;2022-09-03T11:24:34;3.83;;;2.30;;
52854;SDS011;38719;51.418;7.286;2022-09-03T11:27:13;3.60;;;2.20;;
52854;SDS011;38719;51.418;7.286;2022-09-03T11:29:52;9.43;;;2.47;;
52854;SDS011;38719;51.418;7.286;2022-09-03T11:32:27;5.32;;;2.30;;
52854;SDS011;38719;51.418;7.286;2022-09-03T11:35:11;2.88;;;2.30;;
52854;SDS011;38719;51.418;7.286;2022-09-03T11:40:14;4.30;;;2.08;;
52854;SDS011;38719;51.418;7.286;2022-09-03T11:42:45;5.20;;;2.30;;
52854;SDS011;38719;51.418;7.286;2022-09-03T11:45:21;3.45;;;2.40;;
52854;SDS011;38719;51.418;7.286;2022-09-03T11:47:59;5.38;;;2.10;;
52854;SDS011;38719;51.418;7.286;2022-09-03T11:50:28;3.13;;;2.10;;
52854;SDS011;38719;51.418;7.286;2022-09-03T11:53:06;6.15;;;2.10;;
52854;SDS011;38719;51.418;7.286;2022-09-03T11:55:45;5.40;;;2.42;;
52854;SDS011;38719;51.418;7.286;2022-09-03T11:58:22;2.92;;;2.30;;
52854;SDS011;38719;51.418;7.286;2022-09-03T12:00:53;6.18;;;2.60;;
52854;SDS011;38719;51.418;7.286;2022-09-03T12:03:23;7.10;;;2.20;;
52854;SDS011;38719;51.418;7.286;2022-09-03T12:06:01;3.42;;;2.22;;
52854;SDS011;38719;51.418;7.286;2022-09-03T12:08:49;2.20;;;2.00;;
52854;SDS011;38719;51.418;7.286;2022-09-03T12:11:37;4.55;;;2.10;;
52854;SDS011;38719;51.418;7.286;2022-09-03T12:14:18;5.95;;;2.22;;
52854;SDS011;38719;51.418;7.286;2022-09-03T12:17:06;2.83;;;2.30;;
52854;SDS011;38719;51.418;7.286;2022-09-03T12:19:44;2.72;;;2.28;;
52854;SDS011;38719;51.418;7.286;2022-09-03T12:22:18;3.38;;;2.10;;
52854;SDS011;38719;51.418;7.286;2022-09-03T12:24:47;4.22;;;2.42;;
52854;SDS011;38719;51.418;7.286;2022-09-03T12:27:17;5.43;;;2.67;;
52854;SDS011;38719;51.418;7.286;2022-09-03T12:29:52;3.55;;;2.63;;
52854;SDS011;38719;51.418;7.286;2022-09-03T12:32:23;3.67;;;2.47;;
52854;SDS011;38719;51.418;7.286;2022-09-03T12:34:51;3.65;;;2.85;;
52854;SDS011;38719;51.418;7.286;2022-09-03T12:37:20;3.97;;;2.78;;
52854;SDS011;38719;51.418;7.286;2022-09-03T12:40:15;4.10;;;2.40;;
52854;SDS011;38719;51.418;7.286;2022-09-03T12:42:44;4.18;;;2.40;;
52854;SDS011;38719;51.418;7.286;2022-09-03T12:45:14;8.43;;;2.33;;
52854;SDS011;38719;51.418;7.286;2022-09-03T12:47:45;3.65;;;2.40;;
52854;SDS011;38719;51.418;7.286;2022-09-03T12:50:14;2.72;;;2.50;;
52854;SDS011;38719;51.418;7.286;2022-09-03T12:52:45;3.67;;;2.42;;
52854;SDS011;38719;51.418;7.286;2022-09-03T12:55:21;2.40;;;2.20;;
52854;SDS011;38719;51.418;7.286;2022-09-03T12:57:55;6.05;;;2.78;;
52854;SDS011;38719;51.418;7.286;2022-09-03T13:00:30;4.05;;;2.50;;
52854;SDS011;38719;51.418;7.286;2022-09-03T13:03:02;2.65;;;2.45;;
52854;SDS011;38719;51.418;7.286;2022-09-03T13:05:33;4.55;;;2.55;;
52854;SDS011;38719;51.418;7.286;2022-09-03T13:08:07;7.10;;;2.88;;
52854;SDS011;38719;51.418;7.286;2022-09-03T13:10:40;4.50;;;2.88;;
52854;SDS011;38719;51.418;7.286;2022-09-03T13:13:16;5.50;;;2.70;;
52854;SDS011;38719;51.418;7.286;2022-09-03T13:16:04;3.15;;;2.40;;
52854;SDS011;38719;51.418;7.286;2022-09-03T13:18:42;3.25;;;2.90;;
52854;SDS011;38719;51.418;7.286;2022-09-03T13:21:20;3.00;;;2.70;;
52854;SDS011;38719;51.418;7.286;2022-09-03T13:24:08;6.22;;;2.85;;
52854;SDS011;38719;51.418;7.286;2022-09-03T13:26:47;2.92;;;2.40;;
52854;SDS011;38719;51.418;7.286;2022-09-03T13:29:38;3.80;;;2.53;;
52854;SDS011;38719;51.418;7.286;2022-09-03T13:32:24;4.05;;;2.58;;
52854;SDS011;38719;51.418;7.286;2022-09-03T13:35:01;5.25;;;2.80;;
52854;SDS011;38719;51.418;7.286;2022-09-03T13:37:36;2.80;;;2.50;;
52854;SDS011;38719;51.418;7.286;2022-09-03T13:40:14;3.35;;;2.60;;
52854;SDS011;38719;51.418;7.286;2022-09-03T13:42:48;5.13;;;2.50;;
52854;SDS011;38719;51.418;7.286;2022-09-03T13:45:22;3.17;;;2.53;;
52854;SDS011;38719;51.418;7.286;2022-09-03T13:47:57;2.85;;;2.53;;
52854;SDS011;38719;51.418;7.286;2022-09-03T13:50:47;5.20;;;2.42;;
52854;SDS011;38719;51.418;7.286;2022-09-03T13:53:29;3.50;;;2.50;;
52854;SDS011;38719;51.418;7.286;2022-09-03T13:56:04;4.78;;;2.80;;
52854;SDS011;38719;51.418;7.286;2022-09-03T13:58:42;4.10;;;2.60;;
52854;SDS011;38719;51.418;7.286;2022-09-03T14:01:16;6.70;;;2.78;;
52854;SDS011;38719;51.418;7.286;2022-09-03T14:03:51;3.38;;;2.65;;
52854;SDS011;38719;51.418;7.286;2022-09-03T14:06:27;3.30;;;2.30;;
52854;SDS011;38719;51.418;7.286;2022-09-03T14:11:40;3.13;;;2.60;;
52854;SDS011;38719;51.418;7.286;2022-09-03T14:14:18;5.30;;;2.50;;
52854;SDS011;38719;51.418;7.286;2022-09-03T14:16:58;3.50;;;2.83;;
52854;SDS011;38719;51.418;7.286;2022-09-03T14:19:40;3.92;;;2.90;;
52854;SDS011;38719;51.418;7.286;2022-09-03T14:22:13;4.47;;;2.40;;
52854;SDS011;38719;51.418;7.286;2022-09-03T14:24:48;3.00;;;2.70;;
52854;SDS011;38719;51.418;7.286;2022-09-03T14:27:23;4.25;;;2.63;;
52854;SDS011;38719;51.418;7.286;2022-09-03T14:29:54;3.17;;;2.88;;
52854;SDS011;38719;51.418;7.286;2022-09-03T14:32:29;3.90;;;2.67;;
52854;SDS011;38719;51.418;7.286;2022-09-03T14:35:15;4.60;;;2.40;;
52854;SDS011;38719;51.418;7.286;2022-09-03T14:40:49;4.57;;;2.40;;
52854;SDS011;38719;51.418;7.286;2022-09-03T14:43:42;3.08;;;2.63;;
52854;SDS011;38719;51.418;7.286;2022-09-03T14:46:31;2.90;;;2.67;;
52854;SDS011;38719;51.418;7.286;2022-09-03T14:49:10;3.28;;;2.72;;
52854;SDS011;38719;51.418;7.286;2022-09-03T14:51:56;2.70;;;2.50;;
52854;SDS011;38719;51.418;7.286;2022-09-03T14:54:45;7.95;;;3.00;;
52854;SDS011;38719;51.418;7.286;2022-09-03T14:57:35;3.35;;;2.80;;
52854;SDS011;38719;51.418;7.286;2022-09-03T15:00:15;5.07;;;3.20;;
52854;SDS011;38719;51.418;7.286;2022-09-03T15:02:56;4.03;;;3.05;;
52854;SDS011;38719;51.418;7.286;2022-09-03T15:05:45;2.78;;;2.55;;
52854;SDS011;38719;51.418;7.286;2022-09-03T15:08:26;2.70;;;2.50;;
52854;SDS011;38719;51.418;7.286;2022-09-03T15:11:10;4.13;;;2.70;;
52854;SDS011;38719;51.418;7.286;2022-09-03T15:13:44;3.95;;;2.70;;
52854;SDS011;38719;51.418;7.286;2022-09-03T15:16:26;4.75;;;2.63;;
52854;SDS011;38719;51.418;7.286;2022-09-03T15:19:06;3.35;;;2.80;;
52854;SDS011;38719;51.418;7.286;2022-09-03T15:21:44;4.32;;;2.80;;
52854;SDS011;38719;51.418;7.286;2022-09-03T15:24:27;3.30;;;2.80;;
52854;SDS011;38719;51.418;7.286;2022-09-03T15:27:10;2.70;;;2.47;;
52854;SDS011;38719;51.418;7.286;2022-09-03T15:29:51;6.10;;;2.42;;
52854;SDS011;38719;51.418;7.286;2022-09-03T15:32:31;2.83;;;2.53;;
52854;SDS011;38719;51.418;7.286;2022-09-03T15:35:15;4.30;;;2.47;;
52854;SDS011;38719;51.418;7.286;2022-09-03T15:37:59;3.20;;;2.55;;
52854;SDS011;38719;51.418;7.286;2022-09-03T15:40:32;5.22;;;2.90;;
52854;SDS011;38719;51.418;7.286;2022-09-03T15:43:07;3.35;;;2.63;;
52854;SDS011;38719;51.418;7.286;2022-09-03T15:45:38;6.30;;;2.60;;